Terminal Aerodrome Forecast
Issued by NWS

Current Version | Previous Version | Graphics & Text | Print | Product List | Glossary On
Versions: 1 2 3 4 5 6 7 8 9 10 11 12 13 14 15 16 17
000
FTUS41 KILN 262300
TAFLUK
TAF
KLUK 262340Z 2700/2724 34004KT P6SM VCTS BKN050CB
     FM270100 00000KT P6SM SCT050 SCT200
     FM270600 00000KT 2SM BR SCT200
     FM271300 34005KT P6SM VCTS BKN050CB
     FM272300 02003KT P6SM BKN040=

USA.gov is the U.S. government's official web portal to all federal, state and local government web resources and services.